Time;durP1;ratioP1;P1;durP2;ratioP2;P2;SDS_P1;SDS_P2;PMS_P1;PMS_P2;Temp;Humidity;BMP_temperature;BMP_pressure;BME280_temperature;BME280_humidity;BME280_pressure;Samples;Min_cycle;Max_cycle;Signal;HPM_P1;HPM_P2
2022/05/04 00:02:13;;;;;;;12.00;10.43;;;;;;;14.16;59.33;98845.91;2622639;54;20034;-66
2022/05/04 00:04:43;;;;;;;12.15;10.77;;;;;;;14.19;59.63;98848.16;2622655;54;20027;-64
2022/05/04 00:07:12;;;;;;;11.75;10.43;;;;;;;14.14;59.87;98840.03;2623138;39;20427;-64
2022/05/04 00:09:45;;;;;;;11.45;10.38;;;;;;;14.00;60.31;98841.13;2623165;54;20034;-63
2022/05/04 00:12:14;;;;;;;13.32;10.25;;;;;;;13.98;60.14;98837.88;2623439;54;20056;-64
2022/05/04 00:14:44;;;;;;;11.30;9.65;;;;;;;13.89;60.02;98829.34;2623320;54;20039;-64
2022/05/04 00:17:14;;;;;;;11.07;9.98;;;;;;;13.90;60.10;98838.13;2622650;54;20038;-65
2022/05/04 00:19:43;;;;;;;11.25;10.15;;;;;;;13.92;59.77;98836.91;2623431;54;20081;-65
2022/05/04 00:22:13;;;;;;;10.93;9.88;;;;;;;13.96;59.62;98840.75;2623231;54;20558;-64
2022/05/04 00:24:45;;;;;;;11.40;10.27;;;;;;;13.95;60.04;98841.75;2622700;54;20038;-63
2022/05/04 00:27:15;;;;;;;11.30;10.20;;;;;;;13.84;61.00;98839.81;2622606;54;20038;-64
2022/05/04 00:29:45;;;;;;;12.75;10.85;;;;;;;13.75;61.43;98836.53;2622672;54;20459;-64
2022/05/04 00:32:17;;;;;;;11.38;10.10;;;;;;;13.69;61.05;98848.03;2622643;54;20038;-63
2022/05/04 00:34:47;;;;;;;11.25;10.15;;;;;;;13.68;61.02;98851.72;2622376;54;20030;-64
2022/05/04 00:37:16;;;;;;;16.02;10.30;;;;;;;13.66;61.16;98848.44;2622313;54;20037;-65
2022/05/04 00:39:49;;;;;;;14.98;10.50;;;;;;;13.59;61.09;98839.69;2622755;54;20573;-65
2022/05/04 00:42:21;;;;;;;12.32;10.52;;;;;;;13.54;61.07;98840.31;2622059;54;20038;-64
2022/05/04 00:44:52;;;;;;;11.30;10.23;;;;;;;13.56;61.46;98837.47;2621826;54;20027;-63
2022/05/04 00:47:22;;;;;;;11.90;10.25;;;;;;;13.54;61.03;98850.13;2621658;54;20146;-63
2022/05/04 00:49:52;;;;;;;13.02;11.13;;;;;;;13.53;61.20;98843.19;2621912;54;20030;-63
2022/05/04 00:52:22;;;;;;;11.77;10.68;;;;;;;13.55;61.13;98852.59;2621848;54;20035;-63
2022/05/04 00:54:55;;;;;;;11.57;10.50;;;;;;;13.57;61.33;98850.53;2622479;54;20098;-63
2022/05/04 00:58:54;;;;;;;12.50;11.20;;;;;;;13.59;61.30;98853.81;2622458;54;20154;-63
2022/05/04 01:00:15;;;;;;;12.00;10.80;;;;;;;13.57;61.13;98844.41;2622600;54;20036;-62
2022/05/04 01:02:45;;;;;;;12.73;11.10;;;;;;;13.57;61.21;98850.53;2622288;54;20027;-64
2022/05/04 01:05:15;;;;;;;16.05;10.85;;;;;;;13.51;61.02;98840.78;2621985;54;20037;-63
2022/05/04 01:07:46;;;;;;;11.80;10.60;;;;;;;13.47;61.20;98846.69;2621084;54;20035;-63
2022/05/04 01:10:18;;;;;;;11.95;10.45;;;;;;;13.41;61.02;98845.69;2621768;54;20031;-64
2022/05/04 01:12:49;;;;;;;11.20;10.02;;;;;;;13.27;61.62;98849.44;2622580;39;20420;-62
2022/05/04 01:15:19;;;;;;;11.45;10.38;;;;;;;13.16;61.61;98847.38;2622451;54;20038;-63
2022/05/04 01:17:49;;;;;;;11.25;10.15;;;;;;;13.06;62.20;98853.09;2621659;54;20034;-65
2022/05/04 01:20:24;;;;;;;12.05;10.80;;;;;;;13.12;62.33;98853.09;2622416;54;20041;-65
2022/05/04 01:22:57;;;;;;;13.25;10.98;;;;;;;13.22;61.86;98854.50;2622230;54;20034;-63
2022/05/04 01:25:27;;;;;;;11.57;10.48;;;;;;;13.24;62.11;98861.25;2621774;54;20038;-63
2022/05/04 01:27:57;;;;;;;12.43;10.93;;;;;;;13.15;62.08;98865.16;2621621;46;20053;-64
2022/05/04 01:30:27;;;;;;;12.15;10.95;;;;;;;12.85;62.68;98859.47;2621969;54;20038;-64
2022/05/04 01:32:56;;;;;;;11.77;10.57;;;;;;;12.82;62.90;98866.00;2621592;54;20042;-63
2022/05/04 01:35:26;;;;;;;12.38;11.10;;;;;;;12.83;63.41;98866.81;2622022;54;20057;-65
2022/05/04 01:37:58;;;;;;;13.20;11.10;;;;;;;12.87;62.83;98863.53;2621500;54;20031;-65
2022/05/04 01:40:28;;;;;;;12.43;11.10;;;;;;;12.95;62.50;98864.38;2622147;54;20023;-65
2022/05/04 01:42:59;;;;;;;15.13;10.77;;;;;;;12.97;62.65;98864.97;2622539;54;20045;-64
2022/05/04 01:45:28;;;;;;;12.13;10.95;;;;;;;12.89;62.19;98863.34;2623568;54;20027;-64
2022/05/04 01:47:58;;;;;;;12.57;11.35;;;;;;;12.71;62.07;98863.16;2622792;54;20038;-63
2022/05/04 01:50:28;;;;;;;11.98;10.65;;;;;;;12.52;62.96;98870.06;2623558;39;20418;-65
2022/05/04 01:53:00;;;;;;;16.45;11.13;;;;;;;12.42;63.12;98862.53;2622330;54;20041;-65
2022/05/04 01:55:31;;;;;;;12.32;11.07;;;;;;;12.43;63.97;98858.84;2622350;54;20038;-65
2022/05/04 01:58:01;;;;;;;17.45;11.07;;;;;;;12.54;63.58;98860.09;2622898;39;20422;-65
2022/05/04 02:00:31;;;;;;;11.82;10.30;;;;;;;12.51;63.08;98858.66;2621723;54;20038;-64
2022/05/04 02:03:01;;;;;;;13.18;10.90;;;;;;;12.52;63.45;98857.63;2622238;54;20034;-65
2022/05/04 02:05:31;;;;;;;11.38;10.27;;;;;;;12.51;63.67;98857.84;2621922;54;20027;-65
2022/05/04 02:08:03;;;;;;;14.98;11.75;;;;;;;12.53;63.33;98858.44;2621030;54;20053;-65
2022/05/04 02:10:33;;;;;;;11.98;10.77;;;;;;;12.54;63.04;98863.56;2621507;54;20026;-65
2022/05/04 02:13:03;;;;;;;13.88;10.93;;;;;;;12.50;63.37;98856.22;2620989;54;20030;-65
2022/05/04 02:15:34;;;;;;;12.32;11.02;;;;;;;12.40;63.21;98862.72;2620568;54;20050;-64
2022/05/04 02:18:04;;;;;;;13.77;11.90;;;;;;;12.35;63.63;98857.22;2619453;54;20605;-63
2022/05/04 02:20:34;;;;;;;12.65;11.07;;;;;;;12.32;63.51;98857.63;2620136;54;20042;-64
2022/05/04 02:23:06;;;;;;;11.43;10.32;;;;;;;12.26;63.54;98861.09;2619923;54;20033;-64
2022/05/04 02:25:35;;;;;;;13.85;10.80;;;;;;;12.20;64.14;98856.56;2619756;54;20033;-65
2022/05/04 02:28:05;;;;;;;14.88;12.90;;;;;;;12.18;64.23;98857.81;2619628;54;20030;-64
2022/05/04 02:30:35;;;;;;;12.57;11.45;;;;;;;12.08;64.11;98858.19;2620376;54;20038;-64
2022/05/04 02:33:04;;;;;;;12.80;11.38;;;;;;;11.93;64.55;98865.50;2621139;39;20426;-62
2022/05/04 02:38:19;;;;;;;14.52;11.95;;;;;;;11.60;64.80;98858.22;2621119;54;20033;-65
2022/05/04 02:40:48;;;;;;;15.35;11.73;;;;;;;11.47;65.58;98858.16;2621088;54;20831;-65
2022/05/04 02:43:18;;;;;;;12.23;11.13;;;;;;;11.44;65.79;98856.72;2618942;54;20027;-63
2022/05/04 02:45:48;;;;;;;12.95;11.65;;;;;;;11.45;65.36;98861.00;2621248;54;20030;-64
2022/05/04 02:48:17;;;;;;;15.18;11.65;;;;;;;11.43;65.30;98862.22;2620663;54;20026;-64
2022/05/04 02:50:47;;;;;;;13.23;11.82;;;;;;;11.44;65.94;98861.22;2621049;54;20030;-64
2022/05/04 02:53:19;;;;;;;12.57;11.35;;;;;;;11.45;65.92;98858.38;2621137;54;20042;-65
2022/05/04 02:55:49;;;;;;;12.25;10.80;;;;;;;11.46;65.44;98864.47;2620756;54;20035;-65
2022/05/04 02:58:18;;;;;;;12.10;10.80;;;;;;;11.43;65.08;98863.06;2621608;39;20427;-65
2022/05/04 03:00:48;;;;;;;12.07;10.77;;;;;;;11.37;65.21;98861.97;2620303;54;20058;-64
2022/05/04 03:03:15;;;;;;;13.23;11.55;;;;;;;11.46;65.41;98861.81;2620188;54;20558;-65
2022/05/04 03:05:44;;;;;;;12.63;10.73;;;;;;;11.48;65.57;98859.81;2620389;54;20038;-65
2022/05/04 03:08:14;;;;;;;12.07;10.70;;;;;;;11.47;65.21;98864.28;2620079;54;20034;-65
2022/05/04 03:13:28;;;;;;;13.07;10.77;;;;;;;11.43;65.54;98865.69;2620455;54;20033;-65
2022/05/04 03:15:58;;;;;;;12.00;10.60;;;;;;;11.34;65.87;98865.00;2621040;39;20427;-65
2022/05/04 03:18:27;;;;;;;11.20;10.13;;;;;;;11.33;65.65;98865.22;2619864;47;20086;-63
2022/05/04 03:21:01;;;;;;;;;;;;;;;11.29;66.13;98859.50;2620973;54;20042;-63
2022/05/04 03:23:31;;;;;;;12.60;11.38;;;;;;;11.22;65.28;98868.41;2620890;54;19939;-64
2022/05/04 03:26:03;;;;;;;14.43;11.63;;;;;;;11.07;66.08;98872.00;2621312;54;20030;-64
2022/05/04 03:28:33;;;;;;;12.57;11.27;;;;;;;11.06;66.43;98866.88;2621122;54;20149;-64
2022/05/04 03:31:02;;;;;;;12.93;11.02;;;;;;;11.11;66.26;98864.50;2622157;54;20042;-64
2022/05/04 03:33:32;;;;;;;12.48;11.10;;;;;;;11.10;66.32;98865.50;2622408;54;20054;-63
2022/05/04 03:36:02;;;;;;;13.02;11.57;;;;;;;11.06;66.15;98865.09;2623079;54;20031;-64
2022/05/04 03:38:31;;;;;;;14.10;12.20;;;;;;;10.90;66.37;98870.69;2622625;54;20037;-65
2022/05/04 03:41:04;;;;;;;12.63;11.35;;;;;;;10.91;66.89;98869.66;2622246;51;20099;-64
2022/05/04 03:43:33;;;;;;;13.85;11.50;;;;;;;10.90;66.63;98868.84;2623446;54;20033;-65
2022/05/04 03:46:20;;;;;;;13.13;10.70;;;;;;;11.01;66.56;98864.81;2623809;54;20061;-64
2022/05/04 03:48:52;;;;;;;12.93;11.63;;;;;;;11.01;66.31;98864.81;2622926;46;20026;-62
2022/05/04 03:51:22;;;;;;;12.77;11.18;;;;;;;11.03;66.30;98870.75;2623434;54;20030;-62
2022/05/04 03:53:53;;;;;;;16.13;10.77;;;;;;;11.06;66.27;98869.53;2624003;54;20027;-65
2022/05/04 03:56:25;;;;;;;11.55;10.35;;;;;;;11.06;65.83;98872.19;2623567;54;20034;-63
2022/05/04 03:58:55;;;;;;;12.40;10.48;;;;;;;10.95;65.84;98873.56;2623408;54;20038;-64
2022/05/04 04:01:25;;;;;;;15.15;10.73;;;;;;;10.87;66.23;98879.81;2621717;54;20050;-68
2022/05/04 04:03:54;;;;;;;11.73;10.63;;;;;;;10.80;66.34;98889.50;2620770;54;20022;-65
2022/05/04 04:06:24;;;;;;;12.10;10.35;;;;;;;10.66;66.45;98885.13;2620676;54;20038;-65
2022/05/04 04:08:54;;;;;;;12.68;11.38;;;;;;;10.62;67.02;98886.53;2619689;54;20057;-64
2022/05/04 04:11:26;;;;;;;14.20;11.82;;;;;;;10.60;66.64;98886.69;2620307;54;20027;-66
2022/05/04 04:13:56;;;;;;;12.10;10.80;;;;;;;10.55;66.82;98878.53;2620346;54;20034;-64
2022/05/04 04:16:26;;;;;;;16.38;14.68;;;;;;;10.51;66.92;98877.28;2620241;54;20030;-63
2022/05/04 04:18:56;;;;;;;13.15;11.73;;;;;;;10.52;67.13;98878.91;2619853;54;20038;-63
2022/05/04 04:24:08;;;;;;;14.48;11.13;;;;;;;10.58;67.26;98885.28;2620068;54;20042;-63
2022/05/04 04:26:41;;;;;;;12.07;10.77;;;;;;;10.60;67.13;98889.34;2620046;54;20045;-63
2022/05/04 04:29:11;;;;;;;15.40;12.48;;;;;;;10.64;66.77;98887.94;2619756;54;20042;-64
2022/05/04 04:31:40;;;;;;;18.10;11.27;;;;;;;10.56;67.19;98895.19;2620364;54;20042;-63
2022/05/04 04:34:10;;;;;;;12.63;11.35;;;;;;;10.54;67.37;98890.13;2620665;47;20550;-63
2022/05/04 04:36:43;;;;;;;15.90;12.00;;;;;;;10.64;67.04;98895.88;2620522;54;20045;-63
2022/05/04 04:39:12;;;;;;;14.82;11.95;;;;;;;10.66;67.48;98893.06;2620081;54;20038;-64
2022/05/04 04:41:44;;;;;;;12.40;11.10;;;;;;;10.75;67.20;98893.75;2619449;54;20043;-63
2022/05/04 04:44:14;;;;;;;13.98;11.18;;;;;;;10.80;66.79;98892.16;2619425;54;20038;-63
2022/05/04 04:46:43;;;;;;;13.32;11.55;;;;;;;10.82;67.00;98897.25;2619181;54;20034;-64
2022/05/04 04:49:14;;;;;;;14.32;11.35;;;;;;;10.86;67.05;98898.53;2618791;54;20038;-63
2022/05/04 04:51:43;;;;;;;13.07;11.68;;;;;;;10.95;66.51;98902.66;2619573;54;20531;-64
2022/05/04 04:54:13;;;;;;;13.70;11.80;;;;;;;11.00;66.15;98902.88;2620066;54;20037;-64
2022/05/04 04:56:45;;;;;;;12.57;11.30;;;;;;;11.11;66.25;98910.28;2621204;54;20057;-64
2022/05/04 04:59:15;;;;;;;11.77;10.60;;;;;;;11.21;65.81;98909.13;2623421;54;20550;-63
2022/05/04 05:01:45;;;;;;;12.48;11.27;;;;;;;11.22;65.90;98906.28;2624441;54;20037;-62
2022/05/04 05:04:14;;;;;;;13.32;11.95;;;;;;;11.30;66.06;98906.13;2623319;54;20030;-64
2022/05/04 05:06:44;;;;;;;13.65;12.18;;;;;;;11.45;65.38;98905.19;2621584;54;20095;-63
2022/05/04 05:09:13;;;;;;;14.48;12.95;;;;;;;11.39;65.02;98899.69;2622129;54;20073;-64
2022/05/04 05:11:45;;;;;;;14.85;13.45;;;;;;;11.21;65.12;98899.34;2621408;39;20430;-63
2022/05/04 05:16:57;;;;;;;14.02;12.57;;;;;;;11.21;66.08;98907.28;2621096;54;20034;-63
2022/05/04 05:19:27;;;;;;;16.10;13.45;;;;;;;11.29;66.06;98901.84;2621331;47;20036;-64
2022/05/04 05:21:56;;;;;;;15.23;13.30;;;;;;;11.39;66.08;98904.16;2622023;54;20049;-62
2022/05/04 05:24:26;;;;;;;14.57;13.07;;;;;;;11.45;65.59;98906.00;2622276;54;20031;-62
2022/05/04 05:26:58;;;;;;;15.38;11.52;;;;;;;11.48;65.54;98905.63;2621969;54;20041;-62
2022/05/04 05:29:28;;;;;;;16.73;12.48;;;;;;;11.57;65.31;98899.16;2622769;54;20026;-63
2022/05/04 05:31:58;;;;;;;16.50;12.77;;;;;;;11.61;64.73;98910.16;2621663;54;20038;-63
2022/05/04 05:34:31;;;;;;;19.02;15.07;;;;;;;11.54;64.52;98904.81;2622002;54;20034;-63
2022/05/04 05:37:00;;;;;;;17.17;14.35;;;;;;;11.48;64.74;98913.56;2621418;54;20037;-64
2022/05/04 05:39:30;;;;;;;20.38;12.48;;;;;;;11.49;65.22;98909.09;2622005;54;20039;-64
2022/05/04 05:42:02;;;;;;;16.90;12.88;;;;;;;11.68;65.21;98908.38;2622195;54;20038;-63
2022/05/04 05:44:32;;;;;;;16.30;13.05;;;;;;;11.73;64.42;98905.94;2621940;54;20038;-63
2022/05/04 05:47:07;;;;;;;14.90;12.68;;;;;;;11.70;64.48;98901.03;2621746;54;20050;-63
2022/05/04 05:49:37;;;;;;;15.48;13.77;;;;;;;11.70;64.19;98903.69;2622349;54;20030;-64
2022/05/04 05:52:10;;;;;;;15.07;13.50;;;;;;;11.66;64.00;98894.50;2622458;54;20031;-63
2022/05/04 05:54:39;;;;;;;15.50;13.85;;;;;;;11.69;64.40;98906.53;2622353;54;20026;-64
2022/05/04 05:57:12;;;;;;;15.13;13.13;;;;;;;11.72;64.22;98901.66;2620774;54;20062;-64
2022/05/04 05:59:41;;;;;;;15.27;13.70;;;;;;;11.68;63.72;98905.72;2621862;54;20034;-64
2022/05/04 06:02:11;;;;;;;15.00;13.05;;;;;;;11.66;64.41;98903.25;2622259;54;20031;-63
2022/05/04 06:04:41;;;;;;;14.70;12.60;;;;;;;11.67;64.36;98898.78;2622023;54;20035;-63
2022/05/04 06:07:10;;;;;;;14.57;12.38;;;;;;;11.65;63.83;98903.47;2621980;54;20038;-64
2022/05/04 06:09:40;;;;;;;17.65;14.13;;;;;;;11.64;63.91;98904.47;2621897;54;20035;-63
2022/05/04 06:12:13;;;;;;;17.23;13.85;;;;;;;11.65;64.42;98908.75;2622369;54;20030;-64
2022/05/04 06:14:42;;;;;;;15.77;13.07;;;;;;;11.72;64.32;98903.50;2622637;54;20035;-64
2022/05/04 06:17:13;;;;;;;14.75;13.23;;;;;;;11.78;63.53;98906.16;2622076;46;20060;-64
2022/05/04 06:19:43;;;;;;;14.02;12.50;;;;;;;11.85;63.78;98903.59;2622913;54;20041;-63
2022/05/04 06:22:13;;;;;;;14.55;13.05;;;;;;;11.93;63.65;98900.75;2622255;47;20041;-64
2022/05/04 06:24:43;;;;;;;21.65;14.10;;;;;;;12.02;63.39;98906.69;2622627;54;20050;-64
2022/05/04 06:27:15;;;;;;;17.45;13.75;;;;;;;12.07;63.49;98904.25;2622865;54;20039;-63
2022/05/04 06:35:11;;;;;;;16.75;13.38;;;;;;;12.35;62.92;98907.59;2623224;54;20031;-65
2022/05/04 06:37:40;;;;;;;15.13;13.55;;;;;;;12.42;62.72;98901.50;2622339;54;20026;-63
2022/05/04 06:40:11;;;;;;;21.63;14.88;;;;;;;12.53;62.78;98901.72;2622814;39;20442;-62
2022/05/04 06:42:43;;;;;;;20.75;13.65;;;;;;;12.68;62.26;98909.47;2623513;54;20023;-63
2022/05/04 06:45:13;;;;;;;20.27;13.38;;;;;;;12.71;62.04;98902.94;2623942;54;20026;-64
2022/05/04 06:47:43;;;;;;;23.70;13.60;;;;;;;12.70;61.82;98909.28;2622879;54;20034;-64
2022/05/04 06:50:13;;;;;;;13.93;12.52;;;;;;;12.76;61.84;98911.09;2623454;54;20026;-63
2022/05/04 06:52:42;;;;;;;14.45;12.68;;;;;;;12.83;61.32;98912.72;2622472;54;20539;-64
2022/05/04 06:55:12;;;;;;;16.88;13.20;;;;;;;12.94;61.29;98908.66;2623461;54;20034;-64
2022/05/04 06:57:45;;;;;;;15.60;13.38;;;;;;;13.07;61.62;98908.63;2621989;51;20038;-63
2022/05/04 07:00:16;;;;;;;17.75;11.73;;;;;;;13.23;60.90;98907.44;2623819;54;20145;-62
2022/05/04 07:02:45;;;;;;;19.35;11.65;;;;;;;13.43;61.12;98911.84;2623527;54;20038;-65
2022/05/04 07:05:15;;;;;;;16.33;12.30;;;;;;;13.66;60.45;98911.38;2620134;39;20458;-62
2022/05/04 07:07:45;;;;;;;14.48;12.95;;;;;;;13.89;59.12;98911.72;2619134;54;20094;-62
2022/05/04 07:10:14;;;;;;;14.05;11.13;;;;;;;13.94;58.96;98917.22;2620829;54;20038;-65
2022/05/04 07:12:48;;;;;;;15.25;11.93;;;;;;;14.16;57.98;98912.38;2621721;54;20098;-62
2022/05/04 07:15:18;;;;;;;13.07;11.45;;;;;;;14.25;57.40;98912.97;2620022;54;20038;-64
2022/05/04 07:17:48;;;;;;;11.57;10.35;;;;;;;14.40;57.86;98913.47;2619446;54;20111;-63
2022/05/04 07:20:18;;;;;;;19.45;11.35;;;;;;;14.70;56.01;98918.25;2619064;54;20035;-62
2022/05/04 07:22:47;;;;;;;15.02;10.52;;;;;;;14.82;55.84;98912.00;2619299;54;20026;-62
2022/05/04 07:25:17;;;;;;;11.75;9.50;;;;;;;14.95;55.49;98910.25;2619755;54;20038;-62
2022/05/04 07:27:49;;;;;;;12.20;10.73;;;;;;;15.01;53.81;98909.38;2618994;54;20039;-63
2022/05/04 07:30:19;;;;;;;10.35;9.35;;;;;;;14.96;54.21;98911.88;2619724;54;20118;-62
2022/05/04 07:32:49;;;;;;;11.80;8.70;;;;;;;15.05;54.66;98905.22;2619837;54;20139;-64
2022/05/04 07:35:19;;;;;;;18.70;11.40;;;;;;;15.30;53.86;98915.84;2621885;54;20077;-62
2022/05/04 07:37:49;;;;;;;24.05;12.70;;;;;;;15.34;53.51;98909.03;2621664;54;20046;-62
2022/05/04 07:43:03;;;;;;;26.05;17.23;;;;;;;15.36;53.44;98912.31;2622433;54;20043;-62
2022/05/04 07:45:34;;;;;;;28.33;18.60;;;;;;;15.52;53.20;98910.91;2622648;39;20457;-64
2022/05/04 07:48:04;;;;;;;16.45;10.82;;;;;;;15.57;52.85;98906.53;2621244;54;20038;-62
2022/05/04 07:50:33;;;;;;;17.73;12.48;;;;;;;15.56;53.22;98910.25;2621737;54;20582;-62
2022/05/04 07:53:05;;;;;;;13.98;12.52;;;;;;;15.71;52.88;98909.09;2621755;54;20085;-64
2022/05/04 07:55:36;;;;;;;17.55;12.05;;;;;;;15.75;52.26;98912.94;2621998;54;20568;-62
2022/05/04 07:58:08;;;;;;;11.13;10.07;;;;;;;15.75;52.79;98915.59;2621324;54;20046;-65
2022/05/04 08:06:03;;;;;;;12.02;10.43;;;;;;;15.98;52.69;98913.06;2621314;54;20034;-64
2022/05/04 08:08:32;;;;;;;12.25;10.30;;;;;;;16.07;51.36;98913.56;2619951;54;20551;-64
2022/05/04 08:11:04;;;;;;;14.02;9.20;;;;;;;16.03;51.12;98905.19;2621229;54;20031;-63
2022/05/04 08:13:36;;;;;;;14.68;10.95;;;;;;;16.14;50.98;98913.47;2621066;54;20033;-64
2022/05/04 08:16:07;;;;;;;10.45;8.50;;;;;;;16.13;50.64;98912.66;2620785;54;20030;-63
2022/05/04 08:18:39;;;;;;;11.68;8.48;;;;;;;16.11;50.02;98912.06;2620609;54;20535;-64
2022/05/04 08:21:08;;;;;;;12.77;9.65;;;;;;;16.06;50.68;98907.41;2621511;54;20538;-63
2022/05/04 08:23:38;;;;;;;11.73;9.00;;;;;;;16.24;49.94;98905.75;2620920;54;20162;-65
2022/05/04 08:26:08;;;;;;;13.85;10.82;;;;;;;16.39;50.49;98902.66;2622245;54;20038;-63
2022/05/04 08:28:40;;;;;;;12.77;10.43;;;;;;;16.56;50.17;98903.63;2624832;54;20033;-64
2022/05/04 08:31:10;;;;;;;14.68;9.90;;;;;;;16.65;49.68;98898.78;2625185;54;20056;-64
2022/05/04 08:33:39;;;;;;;11.77;7.75;;;;;;;16.64;49.58;98913.16;2622947;54;20553;-64
2022/05/04 08:36:10;;;;;;;11.35;7.65;;;;;;;16.69;50.20;98907.94;2619735;54;20042;-65
2022/05/04 08:38:39;;;;;;;13.15;8.93;;;;;;;16.84;49.40;98909.16;2619551;47;20026;-64
2022/05/04 08:41:10;;;;;;;9.85;7.72;;;;;;;16.93;48.82;98914.97;2620492;54;20046;-64
2022/05/04 08:43:44;;;;;;;10.07;7.88;;;;;;;17.03;48.63;98915.22;2620235;54;20039;-63
2022/05/04 08:46:17;;;;;;;9.70;7.55;;;;;;;17.12;48.88;98912.22;2619923;54;20041;-65
2022/05/04 08:48:47;;;;;;;11.80;8.10;;;;;;;17.26;48.52;98918.94;2621026;54;20038;-64
2022/05/04 08:51:17;;;;;;;11.30;7.53;;;;;;;17.44;48.16;98913.47;2621127;54;20037;-64
2022/05/04 08:53:46;;;;;;;9.88;7.30;;;;;;;17.53;47.72;98914.72;2620740;47;20029;-64
2022/05/04 08:56:16;;;;;;;10.75;8.50;;;;;;;17.70;47.55;98904.13;2620846;54;20547;-65
2022/05/04 08:58:48;;;;;;;10.70;7.40;;;;;;;17.78;47.37;98903.78;2620376;54;20060;-64
2022/05/04 09:01:18;;;;;;;9.82;7.20;;;;;;;17.95;46.26;98903.03;2620967;54;20031;-66
2022/05/04 09:03:48;;;;;;;8.43;6.80;;;;;;;18.02;46.58;98895.69;2621356;39;20459;-65
2022/05/04 09:06:28;;;;;;;7.93;7.03;;;;;;;18.26;46.31;98902.56;2620889;54;20038;-65
2022/05/04 09:09:03;;;;;;;7.72;6.85;;;;;;;18.41;46.09;98893.16;2620888;39;20470;-66
2022/05/04 09:11:33;;;;;;;7.95;6.82;;;;;;;18.29;45.82;98893.25;2620731;54;20074;-65
2022/05/04 09:14:09;;;;;;;7.72;6.97;;;;;;;18.24;46.13;98899.31;2620692;54;20077;-64
2022/05/04 09:16:39;;;;;;;8.63;7.35;;;;;;;18.10;46.15;98894.50;2620999;54;20042;-64
2022/05/04 09:19:10;;;;;;;8.07;6.80;;;;;;;18.15;45.90;98897.25;2620209;47;20031;-64
2022/05/04 09:21:41;;;;;;;7.55;6.75;;;;;;;18.42;45.50;98884.91;2620076;54;20030;-66
2022/05/04 09:24:13;;;;;;;10.43;7.00;;;;;;;18.53;45.20;98888.56;2620558;54;20046;-65
2022/05/04 09:26:44;;;;;;;9.63;7.78;;;;;;;18.55;45.62;98899.84;2620232;54;20027;-64
2022/05/04 09:29:17;;;;;;;11.23;7.60;;;;;;;18.71;44.71;98892.94;2619867;54;20031;-64
2022/05/04 09:31:50;;;;;;;12.13;9.40;;;;;;;18.75;44.62;98888.72;2620003;54;20037;-64
2022/05/04 09:34:20;;;;;;;;;;;;;;;18.69;44.70;98881.59;2620616;54;20038;-64
2022/05/04 09:45:09;;;;;;;8.65;7.53;;;;;;;18.70;44.78;98878.72;2619859;54;20045;-64
2022/05/04 09:47:40;;;;;;;9.98;8.23;;;;;;;18.83;44.54;98874.09;2619416;54;20034;-64
2022/05/04 09:50:12;;;;;;;13.43;9.80;;;;;;;19.09;44.26;98873.41;2619739;54;20034;-64
2022/05/04 09:52:43;;;;;;;11.57;7.53;;;;;;;19.19;43.47;98873.56;2618934;54;20034;-64
2022/05/04 09:55:22;;;;;;;9.15;8.10;;;;;;;19.24;43.35;98870.16;2619378;54;20045;-66
2022/05/04 09:57:54;;;;;;;12.05;7.93;;;;;;;19.23;43.36;98872.03;2618837;54;20038;-63
2022/05/04 10:00:27;;;;;;;7.60;6.80;;;;;;;19.10;42.73;98863.50;2619175;54;20038;-64
2022/05/04 10:02:57;;;;;;;8.80;7.03;;;;;;;19.12;43.34;98864.09;2619204;54;20085;-64
2022/05/04 10:05:27;;;;;;;10.23;6.38;;;;;;;19.34;43.09;98864.91;2619252;54;20034;-65
2022/05/04 10:07:57;;;;;;;7.63;6.25;;;;;;;19.41;42.17;98859.38;2619055;54;20046;-64
2022/05/04 10:10:27;;;;;;;8.07;6.88;;;;;;;19.44;42.00;98858.88;2619241;54;20026;-63
2022/05/04 10:12:56;;;;;;;8.45;7.65;;;;;;;19.52;41.80;98863.81;2619840;39;20422;-64
2022/05/04 10:15:30;;;;;;;8.07;6.43;;;;;;;19.55;41.69;98856.09;2618426;54;20038;-66
2022/05/04 10:18:05;;;;;;;9.85;6.93;;;;;;;19.78;41.85;98856.91;2617258;39;20449;-66
2022/05/04 10:20:44;;;;;;;7.22;5.85;;;;;;;20.05;41.11;98856.94;2617263;54;20027;-66
2022/05/04 10:23:19;;;;;;;7.43;6.72;;;;;;;20.29;39.92;98852.88;2617031;47;20169;-66
2022/05/04 10:25:51;;;;;;;8.55;7.13;;;;;;;20.27;40.21;98844.25;2616982;54;20026;-66
2022/05/04 10:28:21;;;;;;;7.00;6.40;;;;;;;20.46;40.40;98838.53;2617050;54;20084;-66
2022/05/04 10:30:53;;;;;;;11.10;6.47;;;;;;;20.56;40.46;98845.88;2617103;54;20034;-66
2022/05/04 10:33:28;;;;;;;12.48;5.72;;;;;;;20.68;39.81;98838.44;2619022;54;20530;-66
2022/05/04 10:35:58;;;;;;;6.93;5.57;;;;;;;20.86;39.01;98831.84;2624692;54;20038;-66
2022/05/04 10:38:36;;;;;;;7.22;6.53;;;;;;;20.70;39.00;98837.13;2624466;54;20022;-66
2022/05/04 10:41:09;;;;;;;6.63;5.93;;;;;;;20.51;39.41;98831.34;2621075;54;20534;-66
2022/05/04 10:43:40;;;;;;;;;;;;;;;20.41;39.75;98833.09;2617713;39;20439;-65
2022/05/04 10:46:16;;;;;;;6.35;5.55;;;;;;;20.38;39.82;98831.75;2617365;39;20315;-66
2022/05/04 10:48:47;;;;;;;5.78;5.15;;;;;;;20.21;39.61;98823.00;2618413;54;20030;-67
2022/05/04 10:51:24;;;;;;;6.85;6.25;;;;;;;20.32;39.26;98826.56;2619160;47;20038;-66
2022/05/04 10:53:56;;;;;;;7.15;5.70;;;;;;;20.06;39.94;98828.22;2620542;39;20443;-66
2022/05/04 10:56:28;;;;;;;7.80;7.00;;;;;;;20.14;39.43;98815.16;2619204;39;20421;-67
2022/05/04 10:59:00;;;;;;;6.72;6.00;;;;;;;20.07;39.72;98813.75;2617749;39;20097;-65
2022/05/04 11:01:34;;;;;;;5.38;4.88;;;;;;;20.12;39.92;98808.41;2618103;54;20542;-64
2022/05/04 11:04:22;;;;;;;5.57;5.07;;;;;;;20.45;39.42;98810.88;2617202;47;20030;-64
2022/05/04 11:06:56;;;;;;;5.70;5.18;;;;;;;20.81;38.43;98799.59;2617013;39;20430;-65
2022/05/04 11:09:31;;;;;;;4.90;4.30;;;;;;;20.94;38.32;98801.81;2616780;54;20035;-65
2022/05/04 11:12:04;;;;;;;4.80;4.30;;;;;;;21.27;37.62;98796.09;2616963;47;20038;-65
2022/05/04 11:14:35;;;;;;;6.90;5.30;;;;;;;21.17;38.19;98793.34;2616885;47;20022;-67
2022/05/04 11:17:12;;;;;;;13.73;6.05;;;;;;;21.00;39.17;98798.09;2617261;47;20027;-65
2022/05/04 11:19:45;;;;;;;6.18;5.13;;;;;;;20.90;39.69;98792.66;2617728;47;20106;-65
2022/05/04 11:22:16;;;;;;;6.25;5.57;;;;;;;20.71;39.38;98803.03;2617285;47;20129;-65
2022/05/04 11:25:07;;;;;;;6.10;5.60;;;;;;;20.49;39.63;98798.59;2617207;39;20100;-66
2022/05/04 11:27:37;;;;;;;6.43;5.82;;;;;;;20.41;39.98;98788.28;2616583;47;20146;-64
2022/05/04 11:30:08;;;;;;;7.18;5.35;;;;;;;20.31;40.50;98790.06;2617311;54;20030;-65
2022/05/04 11:32:43;;;;;;;7.82;5.40;;;;;;;20.16;40.62;98786.19;2617368;54;20037;-65
2022/05/04 11:35:15;;;;;;;6.78;6.07;;;;;;;20.22;40.33;98785.16;2617666;54;20035;-66
2022/05/04 11:37:45;;;;;;;8.05;5.82;;;;;;;20.24;39.98;98787.59;2617516;54;20026;-66
2022/05/04 11:40:17;;;;;;;5.85;5.35;;;;;;;20.19;40.50;98785.66;2617272;54;20549;-66
2022/05/04 11:42:48;;;;;;;9.45;5.70;;;;;;;20.25;39.90;98781.19;2617427;54;20026;-66
2022/05/04 11:45:20;;;;;;;7.70;5.50;;;;;;;20.38;39.36;98778.06;2617458;54;20046;-65
2022/05/04 11:47:52;;;;;;;8.38;5.30;;;;;;;20.66;38.78;98776.13;2617118;54;20027;-66
2022/05/04 11:50:22;;;;;;;7.57;5.97;;;;;;;20.98;38.56;98776.88;2617752;39;20434;-63
2022/05/04 11:52:52;;;;;;;8.10;5.63;;;;;;;21.12;37.90;98765.63;2618085;54;20030;-65
2022/05/04 11:55:22;;;;;;;5.55;5.05;;;;;;;21.14;38.32;98764.28;2618214;54;20034;-65
2022/05/04 11:57:52;;;;;;;6.60;5.45;;;;;;;21.17;37.77;98763.78;2617519;47;20034;-65
2022/05/04 12:00:22;;;;;;;5.90;5.10;;;;;;;21.25;38.00;98763.25;2618710;39;20422;-65
2022/05/04 12:02:55;;;;;;;18.65;5.82;;;;;;;21.37;37.69;98752.31;2617529;54;20053;-64
2022/05/04 12:05:25;;;;;;;5.85;5.28;;;;;;;21.32;37.15;98759.53;2618049;54;20042;-65
2022/05/04 12:07:55;;;;;;;5.72;5.10;;;;;;;21.38;37.71;98753.94;2618073;54;20538;-65
2022/05/04 12:10:25;;;;;;;5.57;4.63;;;;;;;21.52;37.82;98748.88;2617533;54;20037;-66
2022/05/04 12:12:55;;;;;;;5.10;4.68;;;;;;;21.58;38.13;98744.31;2618178;54;20596;-65